createdAt,value
2023-02-01T00:00:59.337Z,0.83
2023-02-01T00:03:25.841Z,0.82
2023-02-01T00:05:59.001Z,0.79
2023-02-01T00:08:25.456Z,0.75
2023-02-01T00:11:18.289Z,0.66
2023-02-01T00:13:44.767Z,0.59
2023-02-01T00:16:19.102Z,0.61
2023-02-01T00:18:46.446Z,0.60
2023-02-01T00:21:13.629Z,0.67
2023-02-01T00:23:40.142Z,0.78
2023-02-01T00:26:07.804Z,0.77
2023-02-01T00:28:34.287Z,0.72
2023-02-01T00:31:02.023Z,0.73
2023-02-01T00:33:29.355Z,0.73
2023-02-01T00:36:04.193Z,0.72
2023-02-01T00:38:31.354Z,0.78
2023-02-01T00:41:04.867Z,0.82
2023-02-01T00:43:32.078Z,0.79
2023-02-01T00:45:58.633Z,0.86
2023-02-01T00:48:25.339Z,0.95
2023-02-01T00:50:52.218Z,0.97
2023-02-01T00:53:18.723Z,0.95
2023-02-01T00:55:48.673Z,1.00
2023-02-01T00:58:15.433Z,1.02
2023-02-01T01:00:42.135Z,1.01
2023-02-01T01:03:18.567Z,1.04
2023-02-01T01:05:49.335Z,1.06
2023-02-01T01:08:16.772Z,1.09
2023-02-01T01:10:43.763Z,1.16
2023-02-01T01:13:10.542Z,1.17
2023-02-01T01:15:40.607Z,1.21
2023-02-01T01:18:07.154Z,1.20
2023-02-01T01:20:37.889Z,1.23
2023-02-01T01:23:04.946Z,1.27
2023-02-01T01:25:31.569Z,1.33
2023-02-01T01:27:58.059Z,1.41
2023-02-01T01:30:24.927Z,1.47
2023-02-01T01:32:52.955Z,1.41
2023-02-01T01:35:19.531Z,1.38
2023-02-01T01:37:45.976Z,1.42
2023-02-01T01:40:12.614Z,1.44
2023-02-01T01:42:39.694Z,1.51
2023-02-01T01:45:09.346Z,1.50
2023-02-01T01:47:41.305Z,1.47
2023-02-01T01:50:11.341Z,1.46
2023-02-01T01:52:38.527Z,1.48
2023-02-01T01:55:05.658Z,1.51
2023-02-01T01:57:34.493Z,1.56
2023-02-01T02:00:03.740Z,1.58
2023-02-01T02:02:30.341Z,1.56
2023-02-01T02:04:56.998Z,1.61
2023-02-01T02:07:29.676Z,1.64
2023-02-01T02:10:01.054Z,1.68
2023-02-01T02:12:28.012Z,1.69
2023-02-01T02:14:54.907Z,1.66
2023-02-01T02:17:27.480Z,1.66
2023-02-01T02:20:14.162Z,1.65
2023-02-01T02:22:43.660Z,1.67
2023-02-01T02:25:28.853Z,1.64
2023-02-01T02:28:01.296Z,1.65
2023-02-01T02:30:42.988Z,1.67
2023-02-01T02:33:12.440Z,1.70
2023-02-01T02:35:48.283Z,1.73
2023-02-01T02:38:33.299Z,1.75
2023-02-01T02:41:39.946Z,1.80
2023-02-01T02:44:31.247Z,1.80
2023-02-01T02:47:19.791Z,1.86
2023-02-01T02:50:11.957Z,1.89
2023-02-01T02:53:01.864Z,1.93
2023-02-01T02:55:29.588Z,1.94
2023-02-01T02:58:15.787Z,2.00
2023-02-01T03:01:01.674Z,2.00
2023-02-01T03:03:46.977Z,2.00
2023-02-01T03:06:16.843Z,2.03
2023-02-01T03:08:46.184Z,2.04
2023-02-01T03:11:16.238Z,2.07
2023-02-01T03:13:52.011Z,2.06
2023-02-01T03:16:29.472Z,2.01
2023-02-01T03:19:03.225Z,1.96
2023-02-01T03:21:36.509Z,1.80
2023-02-01T03:24:05.081Z,1.69
2023-02-01T03:26:32.339Z,1.63
2023-02-01T03:29:03.451Z,1.56
2023-02-01T03:31:30.149Z,1.58
2023-02-01T03:33:56.782Z,1.52
2023-02-01T03:36:27.845Z,1.56
2023-02-01T03:39:00.580Z,1.56
2023-02-01T03:41:36.326Z,1.56
2023-02-01T03:44:08.215Z,1.53
2023-02-01T03:46:37.156Z,1.57
2023-02-01T03:49:06.671Z,1.56
2023-02-01T03:51:34.083Z,1.56
2023-02-01T03:54:02.684Z,1.56
2023-02-01T03:56:30.523Z,1.54
2023-02-01T03:59:00.200Z,1.58
2023-02-01T04:01:27.904Z,1.58
2023-02-01T04:03:54.587Z,1.57
2023-02-01T04:06:21.373Z,1.58
2023-02-01T04:08:48.115Z,1.59
2023-02-01T04:11:14.783Z,1.58
2023-02-01T04:13:41.245Z,1.65
2023-02-01T04:16:07.718Z,1.62
2023-02-01T04:18:34.167Z,1.67
2023-02-01T04:21:02.153Z,1.70
2023-02-01T04:23:28.973Z,1.68
2023-02-01T04:25:59.538Z,1.68
2023-02-01T04:28:26.020Z,1.70
2023-02-01T04:30:52.518Z,1.69
2023-02-01T04:33:18.973Z,1.73
2023-02-01T04:35:45.485Z,1.75
2023-02-01T04:38:12.161Z,1.72
2023-02-01T04:40:38.868Z,1.73
2023-02-01T04:43:05.483Z,1.74
2023-02-01T04:45:31.953Z,1.75
2023-02-01T04:47:58.374Z,1.79
2023-02-01T04:50:25.261Z,1.82
2023-02-01T04:52:51.741Z,1.82
2023-02-01T04:55:18.236Z,1.77
2023-02-01T04:57:44.708Z,1.84
2023-02-01T05:00:11.544Z,1.79
2023-02-01T05:02:38.729Z,1.85
2023-02-01T05:05:05.533Z,1.82
2023-02-01T05:07:31.939Z,1.82
2023-02-01T05:09:58.445Z,1.82
2023-02-01T05:12:43.524Z,1.86
2023-02-01T05:15:10.021Z,1.88
2023-02-01T05:17:36.477Z,1.87
2023-02-01T05:20:03.021Z,1.90
2023-02-01T05:22:29.458Z,1.93
2023-02-01T05:24:55.934Z,1.92
2023-02-01T05:27:22.472Z,1.97
2023-02-01T05:29:48.899Z,1.98
2023-02-01T05:32:23.378Z,1.95
2023-02-01T05:34:50.339Z,1.99
2023-02-01T05:37:16.872Z,1.98
2023-02-01T05:39:43.308Z,1.97
2023-02-01T05:42:09.863Z,1.97
2023-02-01T05:44:36.290Z,2.00
2023-02-01T05:47:02.748Z,2.01
2023-02-01T05:49:29.320Z,1.92
2023-02-01T05:51:55.736Z,1.91
2023-02-01T05:54:22.187Z,1.90
2023-02-01T05:56:48.621Z,1.91
2023-02-01T05:59:15.081Z,1.89
2023-02-01T06:01:41.627Z,1.85
2023-02-01T06:04:08.133Z,1.83
2023-02-01T06:06:35.160Z,1.82
2023-02-01T06:09:01.792Z,1.76
2023-02-01T06:11:33.071Z,1.78
2023-02-01T06:14:00.385Z,1.70
2023-02-01T06:16:27.305Z,1.70
2023-02-01T06:18:55.025Z,1.72
2023-02-01T06:21:25.012Z,1.67
2023-02-01T06:23:52.215Z,1.64
2023-02-01T06:26:19.201Z,1.63
2023-02-01T06:28:45.683Z,1.66
2023-02-01T06:31:12.947Z,1.67
2023-02-01T06:33:41.518Z,1.66
2023-02-01T06:36:08.630Z,1.68
2023-02-01T06:38:35.879Z,1.74
2023-02-01T06:41:03.282Z,1.76
2023-02-01T06:43:29.743Z,1.78
2023-02-01T06:46:00.471Z,1.80
2023-02-01T06:48:26.980Z,1.82
2023-02-01T06:50:53.520Z,1.78
2023-02-01T06:53:20.076Z,1.78
2023-02-01T06:55:53.326Z,1.77
2023-02-01T06:58:19.787Z,1.78
2023-02-01T07:00:46.286Z,1.79
2023-02-01T07:03:12.774Z,1.87
2023-02-01T07:05:39.197Z,1.86
2023-02-01T07:08:05.654Z,1.87
2023-02-01T07:10:32.074Z,1.89
2023-02-01T07:12:58.961Z,1.92
2023-02-01T07:15:25.547Z,1.92
2023-02-01T07:17:52.019Z,1.84
2023-02-01T07:20:18.555Z,1.81
2023-02-01T07:22:44.970Z,1.76
2023-02-01T07:25:11.387Z,1.79
2023-02-01T07:27:38.123Z,1.82
2023-02-01T07:30:05.444Z,1.89
2023-02-01T07:32:31.978Z,1.89
2023-02-01T07:34:59.014Z,1.89
2023-02-01T07:37:25.609Z,1.85
2023-02-01T07:39:52.268Z,1.81
2023-02-01T07:42:19.202Z,1.84
2023-02-01T07:44:45.723Z,1.81
2023-02-01T07:47:12.412Z,1.84
2023-02-01T07:49:38.862Z,1.79
2023-02-01T07:52:05.342Z,1.77
2023-02-01T07:54:31.780Z,1.77
2023-02-01T07:56:58.257Z,1.82
2023-02-01T07:59:24.689Z,1.88
2023-02-01T08:01:51.138Z,1.93
2023-02-01T08:04:17.630Z,1.94
2023-02-01T08:06:44.151Z,1.99
2023-02-01T08:09:11.857Z,2.00
2023-02-01T08:11:39.040Z,1.96
2023-02-01T08:14:06.955Z,1.99
2023-02-01T08:16:35.195Z,2.06
2023-02-01T08:19:01.928Z,2.08
2023-02-01T08:21:38.221Z,2.11
2023-02-01T08:24:05.540Z,2.16
2023-02-01T08:26:32.025Z,2.20
2023-02-01T08:29:00.679Z,2.22
2023-02-01T08:31:27.970Z,2.26
2023-02-01T08:33:56.216Z,2.26
2023-02-01T08:36:23.841Z,2.25
2023-02-01T08:38:50.871Z,2.24
2023-02-01T08:41:18.923Z,2.23
2023-02-01T08:43:45.944Z,2.22
2023-02-01T08:46:12.922Z,2.15
2023-02-01T08:48:39.699Z,2.09
2023-02-01T08:51:07.709Z,2.04
2023-02-01T08:53:34.133Z,2.04
2023-02-01T08:56:00.616Z,2.09
2023-02-01T08:58:27.345Z,2.03
2023-02-01T09:00:53.845Z,2.00
2023-02-01T09:03:20.387Z,2.01
2023-02-01T09:05:49.661Z,1.99
2023-02-01T09:08:16.684Z,2.01
2023-02-01T09:10:43.318Z,2.04
2023-02-01T09:13:10.283Z,2.09
2023-02-01T09:15:37.895Z,2.07
2023-02-01T09:18:04.631Z,2.17
2023-02-01T09:20:31.140Z,2.20
2023-02-01T09:22:57.610Z,2.15
2023-02-01T09:25:24.283Z,2.19
2023-02-01T09:27:50.843Z,2.24
2023-02-01T09:30:17.386Z,2.26
2023-02-01T09:32:43.911Z,2.29
2023-02-01T09:35:10.386Z,2.33
2023-02-01T09:37:38.497Z,2.29
2023-02-01T09:40:05.255Z,2.31
2023-02-01T09:42:43.727Z,2.32
2023-02-01T09:45:12.933Z,2.33
2023-02-01T09:47:41.128Z,2.36
2023-02-01T09:50:15.593Z,2.37
2023-02-01T09:52:45.154Z,2.40
2023-02-01T09:55:17.412Z,2.42
2023-02-01T09:57:58.887Z,2.39
2023-02-01T10:00:30.937Z,2.42
2023-02-01T10:02:57.557Z,2.41
2023-02-01T10:05:52.659Z,2.47
2023-02-01T10:08:27.297Z,2.56
2023-02-01T10:10:58.015Z,2.53
2023-02-01T10:13:43.132Z,2.47
2023-02-01T10:16:12.677Z,2.51
2023-02-01T10:18:50.925Z,2.55
2023-02-01T10:21:28.686Z,2.60
2023-02-01T10:24:16.084Z,2.62
2023-02-01T10:26:45.973Z,2.61
2023-02-01T10:29:23.780Z,2.67
2023-02-01T10:31:50.324Z,2.74
2023-02-01T10:34:27.121Z,2.75
2023-02-01T10:36:58.295Z,2.75
2023-02-01T10:39:25.263Z,2.76
2023-02-01T10:41:51.989Z,2.73
2023-02-01T10:44:20.667Z,2.77
2023-02-01T10:46:47.205Z,2.83
2023-02-01T10:49:43.228Z,2.86
2023-02-01T10:52:13.528Z,2.91
2023-02-01T10:54:40.483Z,2.93
2023-02-01T10:57:11.377Z,2.98
2023-02-01T10:59:38.531Z,2.99
2023-02-01T11:02:21.634Z,3.01
2023-02-01T11:04:48.186Z,3.06
2023-02-01T11:07:20.488Z,3.15
2023-02-01T11:09:51.421Z,3.16
2023-02-01T11:12:33.266Z,3.21
2023-02-01T11:15:02.217Z,3.28
2023-02-01T11:17:31.585Z,3.28
2023-02-01T11:19:59.542Z,3.33
2023-02-01T11:22:26.888Z,3.39
2023-02-01T11:24:53.521Z,3.49
2023-02-01T11:27:27.670Z,3.54
2023-02-01T11:29:57.475Z,3.55
2023-02-01T11:32:24.730Z,3.48
2023-02-01T11:34:56.596Z,3.48
2023-02-01T11:37:25.942Z,3.42
2023-02-01T11:39:55.107Z,3.43
2023-02-01T11:42:21.926Z,3.49
2023-02-01T11:44:48.941Z,3.50
2023-02-01T11:47:22.768Z,3.54
2023-02-01T11:49:50.777Z,3.51
2023-02-01T11:52:23.269Z,3.53
2023-02-01T11:54:49.694Z,3.50
2023-02-01T11:57:19.187Z,3.48
2023-02-01T11:59:56.238Z,3.43
2023-02-01T12:02:42.257Z,3.40
2023-02-01T12:05:27.587Z,3.26
2023-02-01T12:08:12.864Z,3.25
2023-02-01T12:10:45.286Z,3.25
2023-02-01T12:13:30.565Z,3.27
2023-02-01T12:16:05.970Z,3.24
2023-02-01T12:18:38.296Z,3.24
2023-02-01T12:21:07.212Z,3.28
2023-02-01T12:24:09.499Z,3.24
2023-02-01T12:26:48.716Z,3.23
2023-02-01T12:29:27.571Z,3.24
2023-02-01T12:32:00.480Z,3.25
2023-02-01T12:34:26.979Z,3.26
2023-02-01T12:36:53.380Z,3.29
2023-02-01T12:39:22.841Z,3.26
2023-02-01T12:42:05.100Z,3.24
2023-02-01T12:44:34.607Z,3.26
2023-02-01T12:47:05.595Z,3.31
2023-02-01T12:49:50.258Z,3.24
2023-02-01T12:52:21.257Z,3.20
2023-02-01T12:54:51.483Z,3.25
2023-02-01T12:57:27.111Z,3.27
2023-02-01T13:00:07.663Z,3.28
2023-02-01T13:02:43.685Z,3.33
2023-02-01T13:05:18.693Z,3.36
2023-02-01T13:07:50.969Z,3.39
2023-02-01T13:10:17.516Z,3.38
2023-02-01T13:12:55.621Z,3.40
2023-02-01T13:15:42.750Z,3.38
2023-02-01T13:18:14.450Z,3.43
2023-02-01T13:21:01.140Z,3.40
2023-02-01T13:23:27.864Z,3.41
2023-02-01T13:25:54.996Z,3.38
2023-02-01T13:28:26.779Z,3.38
2023-02-01T13:30:59.381Z,3.43
2023-02-01T13:33:53.434Z,3.42
2023-02-01T13:36:25.464Z,3.40
2023-02-01T13:38:51.965Z,3.36
2023-02-01T13:41:27.832Z,3.36
2023-02-01T13:43:57.036Z,3.37
2023-02-01T13:46:23.847Z,3.40
2023-02-01T13:48:52.393Z,3.41
2023-02-01T13:51:48.148Z,3.43
2023-02-01T13:54:29.737Z,3.40
2023-02-01T13:56:56.691Z,3.43
2023-02-01T13:59:41.303Z,3.45
2023-02-01T14:02:26.504Z,3.49
2023-02-01T14:04:52.938Z,3.48
2023-02-01T14:07:20.384Z,3.46
2023-02-01T14:09:47.060Z,3.44
2023-02-01T14:12:32.016Z,3.47
2023-02-01T14:15:17.239Z,3.46
2023-02-01T14:17:43.807Z,3.44
2023-02-01T14:20:29.164Z,3.47
2023-02-01T14:23:05.328Z,3.47
2023-02-01T14:25:35.184Z,3.51
2023-02-01T14:28:02.447Z,3.49
2023-02-01T14:30:28.938Z,3.40
2023-02-01T14:32:55.451Z,3.40
2023-02-01T14:35:27.097Z,3.43
2023-02-01T14:37:55.110Z,3.43
2023-02-01T14:40:26.013Z,3.41
2023-02-01T14:42:55.772Z,3.38
2023-02-01T14:45:26.120Z,3.38
2023-02-01T14:47:52.850Z,3.37
2023-02-01T14:50:41.973Z,3.34
2023-02-01T14:53:14.090Z,3.29
2023-02-01T14:55:50.529Z,3.25
2023-02-01T14:58:29.082Z,3.30
2023-02-01T15:00:57.060Z,3.34
2023-02-01T15:03:26.545Z,3.32
2023-02-01T15:05:58.153Z,3.36
2023-02-01T15:08:29.541Z,3.35
2023-02-01T15:10:57.407Z,3.37
2023-02-01T15:13:25.651Z,3.38
2023-02-01T15:16:24.732Z,3.39
2023-02-01T15:18:51.325Z,3.39
2023-02-01T15:21:28.231Z,3.38
2023-02-01T15:24:12.057Z,3.35
2023-02-01T15:26:38.622Z,3.35
2023-02-01T15:29:05.079Z,3.37
2023-02-01T15:31:36.019Z,3.38
2023-02-01T15:34:02.653Z,3.33
2023-02-01T15:36:29.897Z,3.32
2023-02-01T15:39:19.364Z,3.29
2023-02-01T15:41:47.909Z,3.28
2023-02-01T15:44:33.311Z,3.24
2023-02-01T15:47:00.757Z,3.22
2023-02-01T15:49:29.323Z,3.20
2023-02-01T15:51:56.596Z,3.18
2023-02-01T15:54:28.737Z,3.21
2023-02-01T15:56:56.872Z,3.21
2023-02-01T15:59:26.037Z,3.18
2023-02-01T16:01:52.732Z,3.17
2023-02-01T16:04:21.678Z,3.17
2023-02-01T16:06:50.152Z,3.15
2023-02-01T16:09:18.108Z,3.13
2023-02-01T16:11:49.063Z,3.12
2023-02-01T16:14:15.907Z,3.07
2023-02-01T16:16:42.456Z,3.02
2023-02-01T16:19:08.921Z,2.96
2023-02-01T16:21:35.385Z,2.91
2023-02-01T16:24:04.893Z,2.86
2023-02-01T16:26:32.760Z,2.84
2023-02-01T16:28:59.899Z,2.77
2023-02-01T16:31:28.667Z,2.77
2023-02-01T16:33:55.181Z,2.72
2023-02-01T16:36:22.535Z,2.72
2023-02-01T16:38:50.541Z,2.79
2023-02-01T16:41:18.370Z,2.74
2023-02-01T16:43:45.489Z,2.69
2023-02-01T16:46:16.934Z,2.68
2023-02-01T16:48:47.014Z,2.63
2023-02-01T16:51:14.951Z,2.63
2023-02-01T16:53:53.384Z,2.58
2023-02-01T16:56:22.236Z,2.53
2023-02-01T16:58:48.721Z,2.42
2023-02-01T17:01:16.281Z,2.30
2023-02-01T17:03:44.189Z,2.19
2023-02-01T17:06:11.855Z,2.23
2023-02-01T17:08:42.647Z,2.30
2023-02-01T17:11:10.237Z,2.23
2023-02-01T17:13:37.141Z,2.16
2023-02-01T17:16:23.969Z,2.13
2023-02-01T17:18:58.445Z,2.18
2023-02-01T17:21:26.851Z,2.18
2023-02-01T17:23:53.847Z,2.14
2023-02-01T17:26:20.407Z,2.06
2023-02-01T17:28:46.901Z,2.02
2023-02-01T17:31:14.809Z,2.01
2023-02-01T17:33:41.711Z,2.08
2023-02-01T17:36:12.346Z,2.12
2023-02-01T17:38:38.789Z,2.16
2023-02-01T17:41:05.298Z,2.15
2023-02-01T17:43:31.785Z,2.17
2023-02-01T17:46:06.986Z,2.25
2023-02-01T17:48:33.547Z,2.27
2023-02-01T17:51:00.887Z,2.25
2023-02-01T17:53:28.274Z,2.25
2023-02-01T17:55:56.812Z,2.25
2023-02-01T17:58:23.528Z,2.34
2023-02-01T18:00:50.347Z,2.33
2023-02-01T18:03:30.279Z,2.22
2023-02-01T18:05:57.768Z,2.25
2023-02-01T18:08:25.593Z,2.31
2023-02-01T18:10:54.419Z,2.35
2023-02-01T18:13:21.396Z,2.31
2023-02-01T18:15:48.366Z,2.34
2023-02-01T18:18:14.894Z,2.38
2023-02-01T18:20:43.573Z,2.39
2023-02-01T18:23:14.448Z,2.42
2023-02-01T18:25:41.065Z,2.36
2023-02-01T18:28:07.523Z,2.36
2023-02-01T18:30:34.508Z,2.36
2023-02-01T18:33:01.056Z,2.31
2023-02-01T18:35:28.768Z,2.32
2023-02-01T18:37:58.622Z,2.37
2023-02-01T18:40:33.087Z,2.40
2023-02-01T18:42:59.957Z,2.39
2023-02-01T18:45:36.891Z,2.40
2023-02-01T18:48:04.155Z,2.39
2023-02-01T18:50:31.533Z,2.41
2023-02-01T18:52:59.528Z,2.46
2023-02-01T18:55:26.789Z,2.50
2023-02-01T18:57:53.573Z,2.53
2023-02-01T19:00:21.037Z,2.52
2023-02-01T19:02:48.221Z,2.55
2023-02-01T19:05:14.998Z,2.53
2023-02-01T19:07:42.832Z,2.54
2023-02-01T19:10:11.612Z,2.49
2023-02-01T19:12:39.091Z,2.51
2023-02-01T19:15:07.146Z,2.47
2023-02-01T19:17:33.761Z,2.45
2023-02-01T19:20:00.413Z,2.38
2023-02-01T19:22:27.303Z,2.38
2023-02-01T19:24:54.784Z,2.42
2023-02-01T19:27:21.593Z,2.43
2023-02-01T19:29:48.214Z,2.45
2023-02-01T19:32:14.762Z,2.49
2023-02-01T19:34:41.215Z,2.50
2023-02-01T19:37:07.831Z,2.52
2023-02-01T19:39:34.314Z,2.50
2023-02-01T19:42:02.243Z,2.42
2023-02-01T19:44:29.844Z,2.41
2023-02-01T19:46:56.449Z,2.39
2023-02-01T19:49:22.896Z,2.36
2023-02-01T19:51:49.343Z,2.33
2023-02-01T19:54:16.287Z,2.28
2023-02-01T19:56:43.746Z,2.31
2023-02-01T19:59:11.344Z,2.33
2023-02-01T20:01:38.223Z,2.33
2023-02-01T20:04:06.463Z,2.34
2023-02-01T20:06:33.913Z,2.34
2023-02-01T20:09:00.549Z,2.26
2023-02-01T20:11:27.049Z,2.21
2023-02-01T20:13:53.980Z,2.12
2023-02-01T20:16:21.132Z,2.11
2023-02-01T20:18:47.883Z,2.11
2023-02-01T20:21:15.131Z,2.14
2023-02-01T20:23:41.922Z,2.17
2023-02-01T20:26:11.321Z,2.21
2023-02-01T20:28:38.572Z,2.22
2023-02-01T20:31:05.595Z,2.28
2023-02-01T20:33:32.252Z,2.29
2023-02-01T20:35:58.856Z,2.31
2023-02-01T20:38:25.486Z,2.31
2023-02-01T20:40:51.926Z,2.31
2023-02-01T20:43:18.998Z,2.27
2023-02-01T20:45:45.441Z,2.16
2023-02-01T20:48:12.240Z,2.16
2023-02-01T20:50:38.853Z,2.17
2023-02-01T20:53:05.322Z,2.19
2023-02-01T20:55:31.911Z,2.18
2023-02-01T20:57:58.327Z,2.16
2023-02-01T21:00:24.836Z,2.19
2023-02-01T21:02:51.398Z,2.18
2023-02-01T21:05:17.940Z,2.15
2023-02-01T21:07:44.506Z,2.16
2023-02-01T21:10:11.560Z,2.18
2023-02-01T21:12:38.147Z,2.18
2023-02-01T21:15:05.343Z,2.23
2023-02-01T21:17:32.410Z,2.23
2023-02-01T21:19:59.108Z,2.24
2023-02-01T21:22:25.607Z,2.24
2023-02-01T21:24:52.062Z,2.22
2023-02-01T21:27:18.535Z,2.23
2023-02-01T21:29:44.991Z,2.24
2023-02-01T21:32:11.516Z,2.24
2023-02-01T21:34:37.925Z,2.13
2023-02-01T21:37:04.356Z,2.13
2023-02-01T21:39:30.839Z,2.16
2023-02-01T21:42:16.723Z,2.20
2023-02-01T21:44:46.227Z,2.24
2023-02-01T21:47:13.239Z,2.25
2023-02-01T21:49:39.771Z,2.23
2023-02-01T21:52:06.640Z,2.25
2023-02-01T21:54:33.169Z,2.28
2023-02-01T21:56:59.605Z,2.26
2023-02-01T21:59:26.019Z,2.31
2023-02-01T22:01:52.469Z,2.30
2023-02-01T22:04:18.981Z,2.27
2023-02-01T22:06:46.025Z,2.30
2023-02-01T22:09:24.963Z,2.30
2023-02-01T22:11:52.151Z,2.29
2023-02-01T22:14:19.114Z,2.29
2023-02-01T22:16:46.179Z,2.27
2023-02-01T22:19:12.917Z,2.24
2023-02-01T22:21:41.898Z,2.23
2023-02-01T22:24:09.652Z,2.20
2023-02-01T22:26:36.335Z,2.18
2023-02-01T22:29:03.128Z,2.14
2023-02-01T22:31:29.685Z,2.11
2023-02-01T22:33:56.936Z,2.09
2023-02-01T22:36:25.243Z,2.08
2023-02-01T22:38:52.638Z,2.05
2023-02-01T22:41:19.850Z,2.02
2023-02-01T22:43:46.887Z,2.00
2023-02-01T22:46:14.637Z,1.99
2023-02-01T22:48:41.978Z,1.94
2023-02-01T22:51:11.926Z,1.89
2023-02-01T22:53:38.426Z,1.86
2023-02-01T22:56:06.449Z,1.80
2023-02-01T22:58:35.917Z,1.73
2023-02-01T23:01:09.120Z,1.75
2023-02-01T23:03:36.514Z,1.70
2023-02-01T23:06:03.295Z,1.67
2023-02-01T23:08:29.750Z,1.72
2023-02-01T23:11:00.041Z,1.71
2023-02-01T23:13:26.562Z,1.66
2023-02-01T23:15:53.167Z,1.52
2023-02-01T23:18:19.729Z,1.46
2023-02-01T23:20:46.199Z,1.47
2023-02-01T23:23:12.631Z,1.52
2023-02-01T23:25:39.060Z,1.52
2023-02-01T23:28:05.548Z,1.48
2023-02-01T23:30:32.060Z,1.53
2023-02-01T23:32:58.637Z,1.59
2023-02-01T23:35:25.492Z,1.62
2023-02-01T23:37:52.095Z,1.66
2023-02-01T23:40:18.676Z,1.68
2023-02-01T23:43:05.282Z,1.68
2023-02-01T23:45:31.712Z,1.68
2023-02-01T23:47:58.125Z,1.72
2023-02-01T23:50:24.609Z,1.74
2023-02-01T23:52:51.018Z,1.77
2023-02-01T23:55:19.610Z,1.75
2023-02-01T23:57:46.049Z,1.72
